Time;durP1;ratioP1;P1;durP2;ratioP2;P2;SDS_P1;SDS_P2;PMS_P1;PMS_P2;Temp;Humidity;BMP_temperature;BMP_pressure;BME280_temperature;BME280_humidity;BME280_pressure;Samples;Min_cycle;Max_cycle;Signal;HPM_P1;HPM_P2
2022/12/23 00:00:04;;;;;;;13.60;6.40;;;;;;;;;;5000497;28;20932;-44
2022/12/23 00:02:29;;;;;;;19.43;7.10;;;;;;;;;;5006931;28;20482;-43
2022/12/23 00:04:55;;;;;;;14.20;6.53;;;;;;;;;;5003776;28;20463;-44
2022/12/23 00:07:21;;;;;;;9.90;5.33;;;;;;;;;;4998778;28;20801;-44
2022/12/23 00:09:47;;;;;;;14.80;5.53;;;;;;;;;;4999706;28;20416;-43
2022/12/23 00:15:04;;;;;;;12.50;5.77;;;;;;;;;;5004011;28;20971;-46
2022/12/23 00:17:30;;;;;;;12.33;5.20;;;;;;;;;;5003928;28;20406;-45
2022/12/23 00:19:56;;;;;;;12.07;6.30;;;;;;;;;;5002356;28;20428;-44
2022/12/23 00:23:03;;;;;;;14.40;6.53;;;;;;;;;;5003362;28;20507;-45
2022/12/23 00:25:08;;;;;;;18.53;6.83;;;;;;;;;;5003773;28;20469;-41
2022/12/23 00:27:34;;;;;;;22.00;7.20;;;;;;;;;;4998630;28;20420;-42
2022/12/23 00:30:00;;;;;;;16.03;6.73;;;;;;;;;;5005423;28;20481;-42
2022/12/23 00:32:26;;;;;;;22.40;7.00;;;;;;;;;;5002048;28;20475;-41
2022/12/23 00:34:52;;;;;;;16.03;7.23;;;;;;;;;;5003911;28;20416;-42
2022/12/23 00:37:18;;;;;;;15.10;7.20;;;;;;;;;;5004881;28;20415;-42
2022/12/23 00:45:16;;;;;;;20.60;7.53;;;;;;;;;;5005143;28;20842;-41
2022/12/23 00:50:28;;;;;;;16.10;6.67;;;;;;;;;;5007056;28;20407;-41
2022/12/23 00:52:54;;;;;;;11.30;6.37;;;;;;;;;;5003101;28;20431;-41
2022/12/23 00:55:21;;;;;;;11.47;6.10;;;;;;;;;;4998331;28;20769;-41
2022/12/23 00:57:47;;;;;;;11.63;6.47;;;;;;;;;;5006573;28;20439;-42
2022/12/23 01:00:13;;;;;;;12.90;6.50;;;;;;;;;;5003310;28;20882;-41
2022/12/23 01:05:35;;;;;;;13.17;7.17;;;;;;;;;;5004829;28;21019;-41
2022/12/23 01:08:02;;;;;;;13.17;6.90;;;;;;;;;;5003224;28;20411;-41
2022/12/23 01:10:27;;;;;;;15.33;7.03;;;;;;;;;;5002880;28;20510;-41
2022/12/23 01:12:53;;;;;;;13.20;5.90;;;;;;;;;;5002557;28;20987;-41
2022/12/23 01:15:19;;;;;;;14.13;6.30;;;;;;;;;;5007876;28;20932;-42
2022/12/23 01:17:45;;;;;;;11.90;6.23;;;;;;;;;;5003432;28;20476;-42
2022/12/23 01:20:12;;;;;;;14.93;7.70;;;;;;;;;;4999536;28;20909;-42
2022/12/23 01:22:38;;;;;;;13.90;7.40;;;;;;;;;;5001534;28;20810;-42
2022/12/23 01:25:04;;;;;;;19.20;7.30;;;;;;;;;;5002607;28;20444;-41
2022/12/23 01:27:30;;;;;;;21.03;7.53;;;;;;;;;;5005755;28;20546;-42
2022/12/23 01:29:56;;;;;;;19.33;8.63;;;;;;;;;;5004461;28;20470;-42
2022/12/23 01:32:22;;;;;;;11.70;6.47;;;;;;;;;;5005256;28;20435;-41
2022/12/23 01:34:48;;;;;;;18.40;8.30;;;;;;;;;;5001816;28;20407;-41
2022/12/23 01:37:14;;;;;;;17.17;6.80;;;;;;;;;;4997979;28;20755;-41
2022/12/23 01:39:39;;;;;;;13.80;8.47;;;;;;;;;;5005849;28;20407;-42
2022/12/23 01:45:00;;;;;;;10.83;7.43;;;;;;;;;;4997515;28;20486;-42
2022/12/23 01:47:29;;;;;;;15.30;8.07;;;;;;;;;;5004050;28;20419;-42
2022/12/23 01:50:15;;;;;;;9.57;7.30;;;;;;;;;;5002567;28;20842;-44
2022/12/23 01:52:44;;;;;;;12.30;6.80;;;;;;;;;;4994679;28;20907;-43
2022/12/23 01:55:10;;;;;;;11.60;7.00;;;;;;;;;;5002568;28;20431;-41
2022/12/23 01:57:38;;;;;;;10.50;7.10;;;;;;;;;;5006601;28;20836;-42
2022/12/23 02:05:35;;;;;;;14.67;8.50;;;;;;;;;;4989934;28;20457;-42
2022/12/23 02:11:05;;;;;;;13.80;9.23;;;;;;;;;;4997586;28;20457;-42
2022/12/23 02:13:36;;;;;;;19.20;9.10;;;;;;;;;;5000699;28;20448;-43
2022/12/23 02:16:17;;;;;;;15.13;8.67;;;;;;;;;;4999812;28;20519;-42
2022/12/23 02:18:43;;;;;;;14.60;8.87;;;;;;;;;;4995289;28;20419;-42
2022/12/23 02:21:15;;;;;;;14.90;10.17;;;;;;;;;;5001162;28;20411;-41
2022/12/23 02:23:52;;;;;;;25.30;10.43;;;;;;;;;;5005244;28;20919;-41
2022/12/23 02:26:36;;;;;;;19.90;10.97;;;;;;;;;;5001100;28;20463;-41
2022/12/23 02:29:15;;;;;;;18.83;9.13;;;;;;;;;;4997538;28;20415;-43
2022/12/23 02:31:44;;;;;;;18.63;9.93;;;;;;;;;;4999698;28;20420;-42
2022/12/23 02:34:16;;;;;;;23.17;11.53;;;;;;;;;;5002234;28;20499;-41
2022/12/23 02:37:00;;;;;;;29.50;10.97;;;;;;;;;;5001113;28;20462;-41
2022/12/23 02:39:36;;;;;;;19.93;10.90;;;;;;;;;;5006716;28;20966;-42
2022/12/23 02:42:07;;;;;;;22.40;12.50;;;;;;;;;;5003912;28;20445;-41
2022/12/23 02:44:32;;;;;;;21.70;12.83;;;;;;;;;;4990648;28;20506;-41
2022/12/23 02:47:00;;;;;;;25.33;10.70;;;;;;;;;;4998157;28;21033;-41
2022/12/23 02:49:33;;;;;;;17.67;11.27;;;;;;;;;;5003786;28;20423;-41
2022/12/23 02:52:02;;;;;;;27.47;12.17;;;;;;;;;;5002683;28;20427;-41
2022/12/23 02:54:29;;;;;;;16.57;10.93;;;;;;;;;;5003849;28;20413;-41
2022/12/23 02:56:57;;;;;;;18.97;11.60;;;;;;;;;;5001006;28;20420;-41
2022/12/23 02:59:27;;;;;;;20.57;10.80;;;;;;;;;;5003359;28;20458;-42
2022/12/23 03:01:54;;;;;;;26.23;12.17;;;;;;;;;;4999336;28;20439;-41
2022/12/23 03:04:20;;;;;;;29.17;11.90;;;;;;;;;;5002335;28;20423;-42
2022/12/23 03:06:49;;;;;;;21.30;12.27;;;;;;;;;;5003771;28;20498;-41
2022/12/23 03:09:24;;;;;;;23.40;12.57;;;;;;;;;;5000263;28;20420;-44
2022/12/23 03:11:50;;;;;;;21.50;11.07;;;;;;;;;;5000092;28;20438;-41
2022/12/23 03:14:26;;;;;;;22.80;12.73;;;;;;;;;;5001619;28;20782;-42
2022/12/23 03:17:07;;;;;;;20.03;13.23;;;;;;;;;;5000700;28;20488;-41
2022/12/23 03:19:51;;;;;;;19.77;11.53;;;;;;;;;;4994144;28;20404;-41
2022/12/23 03:22:20;;;;;;;23.40;12.23;;;;;;;;;;4999492;28;20485;-41
2022/12/23 03:25:12;;;;;;;19.87;11.40;;;;;;;;;;5002759;28;20496;-43
2022/12/23 03:27:49;;;;;;;15.73;10.80;;;;;;;;;;4998594;28;20498;-42
2022/12/23 03:30:17;;;;;;;21.03;11.73;;;;;;;;;;5001522;28;20415;-42
2022/12/23 03:32:48;;;;;;;16.63;9.83;;;;;;;;;;4997907;28;20434;-41
2022/12/23 03:35:17;;;;;;;15.90;10.17;;;;;;;;;;5001915;28;20488;-44
2022/12/23 03:37:44;;;;;;;16.30;10.27;;;;;;;;;;5003033;28;20411;-42
2022/12/23 03:40:14;;;;;;;18.37;10.33;;;;;;;;;;5000378;28;20430;-42
2022/12/23 03:42:41;;;;;;;24.90;10.70;;;;;;;;;;5001536;28;20451;-42
2022/12/23 03:45:09;;;;;;;18.10;11.17;;;;;;;;;;5000472;28;20539;-43
2022/12/23 03:47:39;;;;;;;17.10;10.60;;;;;;;;;;5001129;28;20794;-41
2022/12/23 03:50:07;;;;;;;17.40;11.47;;;;;;;;;;5000175;28;20426;-42
2022/12/23 03:52:38;;;;;;;16.70;10.57;;;;;;;;;;4993473;28;20443;-41
2022/12/23 03:55:07;;;;;;;27.90;12.43;;;;;;;;;;5000159;28;20416;-42
2022/12/23 03:57:46;;;;;;;21.17;13.27;;;;;;;;;;4990817;28;20418;-41
2022/12/23 04:00:12;;;;;;;19.43;12.30;;;;;;;;;;4996778;28;20898;-41
2022/12/23 04:02:47;;;;;;;31.77;13.80;;;;;;;;;;5002770;28;20929;-41
2022/12/23 04:05:23;;;;;;;25.73;13.30;;;;;;;;;;5002094;28;20497;-42
2022/12/23 04:07:58;;;;;;;29.23;14.90;;;;;;;;;;5006513;28;20837;-41
2022/12/23 04:10:24;;;;;;;29.23;15.57;;;;;;;;;;5006407;28;20916;-41
2022/12/23 04:12:50;;;;;;;26.47;15.60;;;;;;;;;;5004179;28;20431;-41
2022/12/23 04:15:24;;;;;;;22.40;13.13;;;;;;;;;;5005336;28;20445;-42
2022/12/23 04:17:51;;;;;;;21.57;13.90;;;;;;;;;;5003847;28;20845;-42
2022/12/23 04:20:17;;;;;;;27.10;13.50;;;;;;;;;;5010326;28;20835;-42
2022/12/23 04:22:43;;;;;;;24.57;14.07;;;;;;;;;;5004819;28;20517;-41
2022/12/23 04:25:11;;;;;;;28.23;12.50;;;;;;;;;;5002168;28;20567;-42
2022/12/23 04:27:37;;;;;;;22.17;12.27;;;;;;;;;;5004417;28;20959;-42
2022/12/23 04:30:04;;;;;;;16.70;11.30;;;;;;;;;;5004276;28;20431;-42
2022/12/23 04:32:30;;;;;;;19.90;12.00;;;;;;;;;;5006118;28;20477;-42
2022/12/23 04:34:56;;;;;;;22.17;12.33;;;;;;;;;;5006867;28;20420;-42
2022/12/23 04:37:21;;;;;;;18.80;10.83;;;;;;;;;;5008405;28;20514;-42
2022/12/23 04:39:47;;;;;;;26.73;11.53;;;;;;;;;;5004614;28;20422;-42
2022/12/23 04:42:13;;;;;;;21.53;12.10;;;;;;;;;;4999447;28;20447;-42
2022/12/23 04:44:39;;;;;;;20.77;10.20;;;;;;;;;;5006668;28;20430;-42
2022/12/23 04:47:05;;;;;;;18.13;9.97;;;;;;;;;;5005290;28;20458;-42
2022/12/23 04:49:31;;;;;;;22.53;11.30;;;;;;;;;;5006743;28;20469;-42
2022/12/23 04:51:57;;;;;;;13.63;9.40;;;;;;;;;;5004010;28;20539;-42
2022/12/23 04:54:23;;;;;;;21.70;10.30;;;;;;;;;;5006495;28;20505;-41
2022/12/23 04:56:49;;;;;;;16.37;9.57;;;;;;;;;;5002334;28;20458;-42
2022/12/23 04:59:15;;;;;;;15.77;10.30;;;;;;;;;;4998403;28;20430;-42
2022/12/23 05:01:41;;;;;;;19.00;9.33;;;;;;;;;;5006173;28;20443;-42
2022/12/23 05:04:08;;;;;;;17.20;8.90;;;;;;;;;;5003314;28;20790;-42
2022/12/23 05:06:34;;;;;;;13.07;9.40;;;;;;;;;;5006142;28;20819;-42
2022/12/23 05:09:00;;;;;;;13.53;8.30;;;;;;;;;;5003067;28;20412;-41
2022/12/23 05:11:26;;;;;;;13.57;9.17;;;;;;;;;;5003660;28;20438;-42
2022/12/23 05:13:52;;;;;;;17.70;9.80;;;;;;;;;;5001038;28;20495;-41
2022/12/23 05:16:18;;;;;;;14.30;9.40;;;;;;;;;;5004684;28;20447;-42
2022/12/23 05:18:44;;;;;;;17.83;8.80;;;;;;;;;;5004350;28;20477;-42
2022/12/23 05:21:10;;;;;;;18.13;9.17;;;;;;;;;;5000647;28;20420;-43
2022/12/23 05:23:36;;;;;;;20.50;9.73;;;;;;;;;;5003874;28;20414;-44
2022/12/23 05:26:03;;;;;;;12.07;7.70;;;;;;;;;;5002536;28;20514;-43
2022/12/23 05:28:29;;;;;;;14.00;7.80;;;;;;;;;;5002739;28;20417;-42
2022/12/23 05:31:01;;;;;;;10.70;8.40;;;;;;;;;;5001899;28;20503;-42
2022/12/23 05:33:28;;;;;;;14.67;7.80;;;;;;;;;;5007643;28;20416;-42
2022/12/23 05:35:54;;;;;;;15.83;9.90;;;;;;;;;;5004317;28;20451;-43
2022/12/23 05:38:20;;;;;;;13.53;8.60;;;;;;;;;;4999447;28;20422;-42
2022/12/23 05:40:46;;;;;;;14.27;9.50;;;;;;;;;;4999728;28;20503;-41
2022/12/23 05:43:12;;;;;;;20.73;7.60;;;;;;;;;;5002937;28;20432;-42
2022/12/23 05:45:38;;;;;;;10.60;7.33;;;;;;;;;;5005937;28;20542;-42
2022/12/23 05:48:04;;;;;;;19.40;8.00;;;;;;;;;;5003067;28;20976;-42
2022/12/23 05:50:31;;;;;;;16.97;8.10;;;;;;;;;;5005504;28;20414;-43
2022/12/23 05:52:56;;;;;;;12.73;6.87;;;;;;;;;;5002569;28;20550;-42
2022/12/23 05:55:26;;;;;;;10.97;6.63;;;;;;;;;;4997370;28;20531;-44
2022/12/23 05:57:52;;;;;;;15.07;6.80;;;;;;;;;;5005448;28;20419;-42
2022/12/23 06:00:18;;;;;;;11.93;7.10;;;;;;;;;;5002486;28;20417;-41
2022/12/23 06:02:44;;;;;;;14.47;7.70;;;;;;;;;;5003194;28;20804;-42
2022/12/23 06:05:10;;;;;;;14.47;7.23;;;;;;;;;;5002458;28;20971;-42
2022/12/23 06:07:37;;;;;;;14.00;8.73;;;;;;;;;;5003173;28;20773;-42
2022/12/23 06:10:04;;;;;;;14.37;8.50;;;;;;;;;;5002106;28;20454;-41
2022/12/23 06:12:30;;;;;;;13.80;8.90;;;;;;;;;;5001407;28;20463;-43
2022/12/23 06:14:56;;;;;;;13.20;8.50;;;;;;;;;;5005653;28;20797;-41
2022/12/23 06:17:22;;;;;;;11.83;8.33;;;;;;;;;;5000548;28;20494;-41
2022/12/23 06:19:48;;;;;;;18.33;8.33;;;;;;;;;;5001545;28;20913;-42
2022/12/23 06:22:15;;;;;;;16.83;8.90;;;;;;;;;;5001126;28;20424;-42
2022/12/23 06:24:41;;;;;;;17.70;10.00;;;;;;;;;;5002366;28;20440;-43
2022/12/23 06:27:07;;;;;;;14.10;9.40;;;;;;;;;;5001595;28;20477;-44
2022/12/23 06:29:33;;;;;;;16.67;9.77;;;;;;;;;;5005928;28;20404;-42
2022/12/23 06:31:59;;;;;;;18.73;10.10;;;;;;;;;;5003412;28;20948;-41
2022/12/23 06:34:25;;;;;;;20.87;10.43;;;;;;;;;;4998616;28;20914;-41
2022/12/23 06:36:51;;;;;;;20.20;11.03;;;;;;;;;;4999029;28;20997;-41
2022/12/23 06:39:16;;;;;;;22.73;11.30;;;;;;;;;;5002677;28;20913;-41
2022/12/23 06:41:42;;;;;;;28.93;12.70;;;;;;;;;;5004079;28;20453;-42
2022/12/23 06:44:09;;;;;;;28.00;13.30;;;;;;;;;;5001674;28;20467;-42
2022/12/23 06:46:35;;;;;;;25.50;11.60;;;;;;;;;;5004446;28;20473;-42
2022/12/23 06:49:00;;;;;;;20.57;12.17;;;;;;;;;;5002403;28;20415;-41
2022/12/23 06:51:26;;;;;;;21.87;12.80;;;;;;;;;;4995814;28;20439;-43
2022/12/23 06:53:52;;;;;;;23.93;11.87;;;;;;;;;;5004414;28;20813;-42
2022/12/23 06:56:18;;;;;;;15.60;9.83;;;;;;;;;;5001486;28;20423;-41
2022/12/23 06:58:44;;;;;;;20.33;10.10;;;;;;;;;;5002936;28;20457;-42
2022/12/23 07:01:10;;;;;;;22.53;11.97;;;;;;;;;;4999452;28;20489;-42
2022/12/23 07:03:36;;;;;;;20.10;9.40;;;;;;;;;;5009490;28;20407;-41
2022/12/23 07:06:02;;;;;;;17.90;10.67;;;;;;;;;;4992635;28;21071;-41
2022/12/23 07:08:28;;;;;;;21.87;11.50;;;;;;;;;;4992785;28;20412;-42
2022/12/23 07:10:58;;;;;;;23.53;11.87;;;;;;;;;;5000039;28;20420;-41
2022/12/23 07:13:24;;;;;;;19.67;11.37;;;;;;;;;;5000865;28;20514;-43
2022/12/23 07:15:50;;;;;;;21.33;11.37;;;;;;;;;;5001011;28;20977;-41
2022/12/23 07:18:16;;;;;;;28.67;10.60;;;;;;;;;;5004351;28;20414;-41
2022/12/23 07:20:42;;;;;;;22.03;11.90;;;;;;;;;;4998606;28;20492;-42
2022/12/23 07:23:08;;;;;;;29.93;11.90;;;;;;;;;;4996235;28;20436;-42
2022/12/23 07:25:34;;;;;;;26.47;12.37;;;;;;;;;;5005144;28;20465;-41
2022/12/23 07:28:00;;;;;;;25.30;11.90;;;;;;;;;;5002106;28;20481;-42
2022/12/23 07:30:26;;;;;;;22.57;13.30;;;;;;;;;;5003020;28;20416;-42
2022/12/23 07:32:54;;;;;;;25.70;13.40;;;;;;;;;;5000905;28;20439;-41
2022/12/23 07:35:20;;;;;;;23.33;12.67;;;;;;;;;;5002472;28;20430;-43
2022/12/23 07:37:50;;;;;;;27.87;11.60;;;;;;;;;;4998156;28;20426;-41
2022/12/23 07:40:16;;;;;;;21.97;12.17;;;;;;;;;;5002613;28;20855;-41
2022/12/23 07:42:42;;;;;;;21.10;10.57;;;;;;;;;;5001811;28;20493;-42
2022/12/23 07:45:08;;;;;;;26.50;11.53;;;;;;;;;;4999302;28;20439;-43
2022/12/23 07:47:34;;;;;;;23.53;12.23;;;;;;;;;;5002315;28;20465;-41
2022/12/23 07:50:00;;;;;;;25.70;11.23;;;;;;;;;;5000349;28;20996;-41
2022/12/23 07:52:26;;;;;;;33.60;14.30;;;;;;;;;;5000243;28;20803;-41
2022/12/23 07:54:52;;;;;;;25.20;10.93;;;;;;;;;;5000290;28;20420;-41
2022/12/23 07:57:18;;;;;;;22.60;13.17;;;;;;;;;;5005889;28;20426;-41
2022/12/23 07:59:44;;;;;;;27.70;12.47;;;;;;;;;;5001068;28;20423;-42
2022/12/23 08:02:10;;;;;;;22.63;12.40;;;;;;;;;;4997260;28;20440;-41
2022/12/23 08:04:36;;;;;;;18.83;11.20;;;;;;;;;;5000781;28;20428;-42
2022/12/23 08:07:02;;;;;;;19.63;12.23;;;;;;;;;;5000192;28;20463;-43
2022/12/23 08:09:28;;;;;;;21.70;11.43;;;;;;;;;;5003140;28;20411;-42
2022/12/23 08:11:54;;;;;;;26.93;11.90;;;;;;;;;;5002368;28;20442;-41
2022/12/23 08:14:20;;;;;;;25.87;10.33;;;;;;;;;;5004459;28;20413;-41
2022/12/23 08:16:47;;;;;;;25.57;10.83;;;;;;;;;;4999918;28;20859;-42
2022/12/23 08:19:13;;;;;;;26.97;12.30;;;;;;;;;;4996436;28;20427;-42
2022/12/23 08:21:39;;;;;;;29.23;11.90;;;;;;;;;;5002907;28;20430;-41
2022/12/23 08:24:05;;;;;;;27.50;12.00;;;;;;;;;;5001554;28;20414;-41
2022/12/23 08:26:32;;;;;;;20.77;12.83;;;;;;;;;;5003263;28;20494;-41
2022/12/23 08:28:58;;;;;;;21.57;12.13;;;;;;;;;;5000980;28;20523;-42
2022/12/23 08:31:25;;;;;;;20.70;11.07;;;;;;;;;;5008387;28;20512;-41
2022/12/23 08:33:52;;;;;;;20.80;11.27;;;;;;;;;;5002954;28;20439;-41
2022/12/23 08:36:20;;;;;;;20.73;10.50;;;;;;;;;;5001445;28;20426;-42
2022/12/23 08:38:46;;;;;;;24.50;11.00;;;;;;;;;;5001544;28;20511;-41
2022/12/23 08:41:16;;;;;;;25.90;13.33;;;;;;;;;;5001267;28;20529;-42
2022/12/23 08:43:42;;;;;;;25.47;11.73;;;;;;;;;;4992057;28;21170;-42
2022/12/23 08:46:09;;;;;;;21.60;11.30;;;;;;;;;;5009366;28;20856;-42
2022/12/23 08:48:35;;;;;;;24.20;11.77;;;;;;;;;;5000701;28;20411;-42
2022/12/23 08:51:05;;;;;;;26.40;11.77;;;;;;;;;;4998650;28;20423;-42
2022/12/23 08:53:31;;;;;;;18.93;11.80;;;;;;;;;;5004645;28;20403;-42
2022/12/23 08:56:00;;;;;;;27.73;12.40;;;;;;;;;;5005134;28;20407;-41
2022/12/23 08:58:26;;;;;;;24.90;12.00;;;;;;;;;;5004220;28;20420;-42
2022/12/23 09:00:52;;;;;;;18.23;10.73;;;;;;;;;;5000390;28;20794;-42
2022/12/23 09:03:18;;;;;;;20.10;11.17;;;;;;;;;;4995289;28;20877;-42
2022/12/23 09:05:44;;;;;;;22.00;11.00;;;;;;;;;;4994991;28;20878;-43
2022/12/23 09:08:10;;;;;;;23.37;12.00;;;;;;;;;;4995001;28;20419;-42
2022/12/23 09:10:42;;;;;;;23.80;11.40;;;;;;;;;;4994205;28;20416;-42
2022/12/23 09:13:10;;;;;;;18.33;10.37;;;;;;;;;;4994789;28;20427;-42
2022/12/23 09:15:39;;;;;;;20.77;11.60;;;;;;;;;;5006371;28;20406;-42
2022/12/23 09:18:05;;;;;;;19.33;11.13;;;;;;;;;;5003686;28;20420;-43
2022/12/23 09:20:31;;;;;;;24.37;11.63;;;;;;;;;;5005932;28;20976;-42
2022/12/23 09:22:59;;;;;;;17.83;11.50;;;;;;;;;;5003634;28;20435;-42
2022/12/23 09:25:25;;;;;;;18.40;11.40;;;;;;;;;;4998517;28;20965;-44
2022/12/23 09:27:51;;;;;;;18.90;10.97;;;;;;;;;;5006115;28;20426;-42
2022/12/23 09:30:17;;;;;;;16.87;10.50;;;;;;;;;;5003388;28;20909;-42
2022/12/23 09:32:43;;;;;;;16.77;10.23;;;;;;;;;;5004500;28;20940;-42
2022/12/23 09:35:09;;;;;;;19.97;11.53;;;;;;;;;;5002733;28;20419;-42
2022/12/23 09:37:35;;;;;;;17.43;10.63;;;;;;;;;;5004354;28;20412;-43
2022/12/23 09:40:02;;;;;;;20.03;10.50;;;;;;;;;;5002440;28;20411;-43
2022/12/23 09:42:36;;;;;;;24.87;10.67;;;;;;;;;;5002649;28;20917;-42
2022/12/23 09:45:08;;;;;;;18.57;12.03;;;;;;;;;;5007354;28;20896;-42
2022/12/23 09:47:34;;;;;;;33.10;12.60;;;;;;;;;;4994235;28;20936;-43
2022/12/23 09:50:01;;;;;;;19.10;11.83;;;;;;;;;;5000894;28;20422;-42
2022/12/23 09:52:30;;;;;;;19.63;12.37;;;;;;;;;;5001950;28;21051;-42
2022/12/23 09:54:56;;;;;;;19.70;11.93;;;;;;;;;;5001246;28;20471;-43
2022/12/23 09:57:35;;;;;;;19.40;11.80;;;;;;;;;;5003519;28;20420;-43
2022/12/23 10:00:07;;;;;;;18.50;11.73;;;;;;;;;;5002838;28;20412;-42
2022/12/23 10:02:51;;;;;;;19.93;12.17;;;;;;;;;;4997663;28;20436;-42
2022/12/23 10:05:36;;;;;;;24.37;11.23;;;;;;;;;;5003011;28;20513;-42
2022/12/23 10:08:07;;;;;;;22.80;13.73;;;;;;;;;;5002104;28;20972;-43
2022/12/23 10:10:36;;;;;;;19.60;12.27;;;;;;;;;;4990733;28;20423;-42
2022/12/23 10:13:04;;;;;;;22.10;13.20;;;;;;;;;;4993676;28;20848;-42
2022/12/23 10:15:33;;;;;;;21.90;12.40;;;;;;;;;;4993589;28;20416;-42
2022/12/23 10:18:02;;;;;;;21.37;12.10;;;;;;;;;;4993553;28;20917;-42
2022/12/23 10:20:35;;;;;;;25.03;12.50;;;;;;;;;;4993035;28;20404;-44
2022/12/23 10:23:01;;;;;;;32.00;13.33;;;;;;;;;;4993392;28;20424;-42
2022/12/23 10:25:36;;;;;;;26.90;13.10;;;;;;;;;;4993418;28;20546;-43
2022/12/23 10:28:04;;;;;;;23.97;13.83;;;;;;;;;;4975310;28;20507;-43
2022/12/23 10:30:32;;;;;;;20.10;12.53;;;;;;;;;;4988719;28;20423;-46
2022/12/23 10:33:01;;;;;;;21.93;13.77;;;;;;;;;;4993311;28;20436;-42
2022/12/23 10:35:46;;;;;;;19.93;12.30;;;;;;;;;;4993270;28;20474;-42
2022/12/23 10:38:31;;;;;;;20.53;11.33;;;;;;;;;;4993135;28;20419;-42
2022/12/23 10:41:00;;;;;;;16.63;11.27;;;;;;;;;;4992395;28;20419;-42
2022/12/23 10:43:33;;;;;;;17.80;11.17;;;;;;;;;;4993008;28;20424;-42
2022/12/23 10:45:59;;;;;;;19.40;10.53;;;;;;;;;;5001231;28;20510;-42
2022/12/23 10:48:44;;;;;;;19.83;12.07;;;;;;;;;;5001927;28;20412;-43
2022/12/23 10:51:29;;;;;;;15.47;9.90;;;;;;;;;;5000556;28;20407;-43
2022/12/23 10:54:08;;;;;;;16.13;10.70;;;;;;;;;;5003713;28;20462;-42
2022/12/23 10:56:34;;;;;;;17.97;10.63;;;;;;;;;;4998262;28;20405;-42
2022/12/23 10:59:00;;;;;;;17.33;10.00;;;;;;;;;;5001187;28;20512;-42
2022/12/23 11:01:30;;;;;;;17.90;10.80;;;;;;;;;;5002795;28;20438;-42
2022/12/23 11:04:13;;;;;;;20.57;10.40;;;;;;;;;;5000505;28;20432;-42
2022/12/23 11:06:40;;;;;;;14.53;10.20;;;;;;;;;;4994559;28;20467;-42
2022/12/23 11:09:11;;;;;;;21.97;9.10;;;;;;;;;;5006784;28;20415;-42
2022/12/23 11:11:57;;;;;;;20.43;10.20;;;;;;;;;;4992926;28;20484;-42
2022/12/23 11:14:33;;;;;;;15.43;8.40;;;;;;;;;;4998628;28;20446;-42
2022/12/23 11:16:59;;;;;;;14.07;8.37;;;;;;;;;;4997948;28;20417;-42
2022/12/23 11:19:26;;;;;;;16.00;9.17;;;;;;;;;;5003069;28;20423;-42
2022/12/23 11:21:56;;;;;;;15.80;9.90;;;;;;;;;;5003120;28;20803;-42
2022/12/23 11:24:22;;;;;;;16.73;9.80;;;;;;;;;;5002556;28;20442;-42
2022/12/23 11:26:50;;;;;;;14.00;9.03;;;;;;;;;;5002644;28;20499;-42
2022/12/23 11:29:27;;;;;;;11.53;8.90;;;;;;;;;;5003305;28;20465;-42
2022/12/23 11:31:54;;;;;;;13.33;8.97;;;;;;;;;;4999108;28;20430;-42
2022/12/23 11:34:22;;;;;;;13.43;7.97;;;;;;;;;;5001134;28;20418;-42
2022/12/23 11:36:52;;;;;;;16.80;8.80;;;;;;;;;;5003790;28;20419;-42
2022/12/23 11:39:22;;;;;;;10.97;8.00;;;;;;;;;;4999951;28;20439;-42
2022/12/23 11:41:50;;;;;;;10.50;8.33;;;;;;;;;;5000631;28;20467;-43
2022/12/23 11:44:30;;;;;;;15.70;9.50;;;;;;;;;;5001338;28;20428;-43
2022/12/23 11:46:56;;;;;;;9.43;7.10;;;;;;;;;;5000429;28;20880;-44
2022/12/23 11:49:22;;;;;;;13.40;6.90;;;;;;;;;;5002394;28;20965;-43
2022/12/23 11:52:00;;;;;;;9.10;7.63;;;;;;;;;;5003307;28;20471;-42
2022/12/23 11:54:26;;;;;;;12.87;7.33;;;;;;;;;;5004769;28;20415;-42
2022/12/23 11:56:53;;;;;;;13.03;7.77;;;;;;;;;;5001116;28;20472;-42
2022/12/23 11:59:30;;;;;;;11.07;7.17;;;;;;;;;;4996693;28;20423;-42
2022/12/23 12:01:57;;;;;;;12.90;9.33;;;;;;;;;;5002932;28;20923;-43
2022/12/23 12:04:24;;;;;;;9.10;7.83;;;;;;;;;;5001585;28;20503;-42
2022/12/23 12:06:51;;;;;;;12.13;9.70;;;;;;;;;;5002097;28;20461;-42
2022/12/23 12:09:17;;;;;;;12.23;8.57;;;;;;;;;;5001568;28;20408;-42
2022/12/23 12:11:45;;;;;;;13.60;9.90;;;;;;;;;;5000673;28;20963;-42
2022/12/23 12:14:19;;;;;;;13.30;9.20;;;;;;;;;;5001398;28;20505;-42
2022/12/23 12:17:04;;;;;;;11.40;8.70;;;;;;;;;;4999987;28;20420;-42
2022/12/23 12:19:35;;;;;;;12.30;9.50;;;;;;;;;;5006103;28;20831;-42
2022/12/23 12:22:04;;;;;;;11.53;8.80;;;;;;;;;;5003198;28;20450;-42
2022/12/23 12:24:34;;;;;;;11.60;8.30;;;;;;;;;;5017229;23;20575;-41
2022/12/23 12:27:02;;;;;;;11.50;6.60;;;;;;;;;;5038224;28;20500;-43
2022/12/23 12:29:28;;;;;;;10.53;6.50;;;;;;;;;;5045726;28;20882;-42
2022/12/23 12:31:56;;;;;;;10.00;6.30;;;;;;;;;;5045807;28;20464;-42
2022/12/23 12:34:28;;;;;;;10.20;7.10;;;;;;;;;;5039431;28;20928;-42
2022/12/23 12:37:00;;;;;;;17.33;6.30;;;;;;;;;;5024780;28;20429;-42
2022/12/23 12:39:46;;;;;;;7.77;6.63;;;;;;;;;;5025900;28;20788;-42
2022/12/23 12:42:20;;;;;;;8.93;6.30;;;;;;;;;;5024423;28;20920;-42
2022/12/23 12:44:48;;;;;;;8.23;6.30;;;;;;;;;;5022955;28;20462;-42
2022/12/23 12:47:24;;;;;;;8.77;6.07;;;;;;;;;;5029273;28;20869;-42
2022/12/23 12:49:56;;;;;;;10.20;5.80;;;;;;;;;;5025269;28;20406;-42
2022/12/23 12:52:24;;;;;;;10.10;6.03;;;;;;;;;;5013958;28;20410;-42
2022/12/23 12:54:59;;;;;;;8.97;6.10;;;;;;;;;;5014425;28;20819;-41
2022/12/23 12:57:25;;;;;;;9.00;6.23;;;;;;;;;;5013442;28;20900;-41
2022/12/23 12:59:54;;;;;;;9.17;6.33;;;;;;;;;;5014605;28;20473;-41
2022/12/23 13:02:39;;;;;;;8.53;7.07;;;;;;;;;;5013971;28;20406;-41
2022/12/23 13:05:14;;;;;;;13.93;6.97;;;;;;;;;;5014343;28;20438;-42
2022/12/23 13:07:55;;;;;;;7.67;6.70;;;;;;;;;;5014332;28;20445;-41
2022/12/23 13:10:27;;;;;;;6.80;6.10;;;;;;;;;;5014246;28;20485;-41
2022/12/23 13:12:59;;;;;;;10.90;5.07;;;;;;;;;;5013974;28;20518;-42
2022/12/23 13:15:28;;;;;;;9.73;5.30;;;;;;;;;;5014179;28;20438;-42
2022/12/23 13:17:54;;;;;;;10.60;5.57;;;;;;;;;;5014345;28;20426;-41
2022/12/23 13:20:29;;;;;;;9.00;5.90;;;;;;;;;;5013928;28;20420;-41
2022/12/23 13:22:57;;;;;;;8.83;5.10;;;;;;;;;;5014143;28;20477;-42
2022/12/23 13:25:29;;;;;;;8.57;5.43;;;;;;;;;;5013848;28;20455;-42
2022/12/23 13:28:13;;;;;;;6.30;4.80;;;;;;;;;;5013884;28;20422;-41
2022/12/23 13:30:43;;;;;;;5.93;5.33;;;;;;;;;;4993687;28;20399;-41
2022/12/23 13:33:12;;;;;;;13.13;6.33;;;;;;;;;;4993201;28;20882;-41
2022/12/23 13:35:50;;;;;;;10.47;5.30;;;;;;;;;;5011959;28;20427;-41
2022/12/23 13:38:19;;;;;;;6.23;5.27;;;;;;;;;;5014028;28;20919;-41
2022/12/23 13:41:05;;;;;;;9.33;6.87;;;;;;;;;;5013533;28;20899;-41
2022/12/23 13:43:45;;;;;;;7.87;6.07;;;;;;;;;;5021903;28;20429;-41
2022/12/23 13:46:19;;;;;;;8.30;5.50;;;;;;;;;;5026869;28;20492;-41
2022/12/23 13:48:51;;;;;;;10.73;6.07;;;;;;;;;;5022489;28;20421;-41
2022/12/23 13:51:20;;;;;;;6.30;4.70;;;;;;;;;;5017585;28;20873;-41
2022/12/23 13:53:57;;;;;;;7.73;5.17;;;;;;;;;;5025135;28;20480;-41
2022/12/23 13:56:29;;;;;;;7.97;4.90;;;;;;;;;;5023717;28;20410;-41
2022/12/23 13:58:55;;;;;;;7.80;4.67;;;;;;;;;;5023430;28;20410;-41
2022/12/23 14:01:32;;;;;;;6.60;4.60;;;;;;;;;;5022923;28;20904;-41
2022/12/23 14:04:18;;;;;;;4.13;3.80;;;;;;;;;;5017002;28;20432;-41
2022/12/23 14:06:44;;;;;;;9.50;5.17;;;;;;;;;;5015171;28;20894;-42
2022/12/23 14:09:15;;;;;;;6.30;4.40;;;;;;;;;;5021968;28;20411;-42
2022/12/23 14:11:43;;;;;;;3.80;3.50;;;;;;;;;;5026092;28;20420;-42
2022/12/23 14:14:18;;;;;;;4.63;3.93;;;;;;;;;;5026174;28;20939;-41
2022/12/23 14:16:53;;;;;;;7.60;3.93;;;;;;;;;;5022152;28;20425;-42
2022/12/23 14:19:37;;;;;;;4.30;4.00;;;;;;;;;;5018179;28;20437;-42
2022/12/23 14:22:08;;;;;;;4.50;4.10;;;;;;;;;;5016393;28;20784;-42
2022/12/23 14:24:41;;;;;;;4.70;4.10;;;;;;;;;;5015537;28;20972;-41
2022/12/23 14:27:26;;;;;;;4.13;3.20;;;;;;;;;;5021292;28;20498;-41
2022/12/23 14:29:52;;;;;;;3.73;3.40;;;;;;;;;;5021767;28;20761;-41
2022/12/23 14:32:20;;;;;;;3.80;3.50;;;;;;;;;;5022052;28;20406;-41
2022/12/23 14:35:04;;;;;;;3.70;3.40;;;;;;;;;;5014966;28;20423;-42
2022/12/23 14:37:32;;;;;;;3.77;3.00;;;;;;;;;;5020905;28;20415;-41
2022/12/23 14:40:18;;;;;;;3.33;3.03;;;;;;;;;;5020985;28;20426;-42
2022/12/23 14:42:45;;;;;;;4.17;3.30;;;;;;;;;;5016899;28;20407;-41
2022/12/23 14:45:28;;;;;;;3.40;3.10;;;;;;;;;;5023961;28;20993;-42
2022/12/23 14:47:54;;;;;;;3.57;3.27;;;;;;;;;;5020904;28;20452;-42
2022/12/23 14:50:35;;;;;;;7.50;3.67;;;;;;;;;;5015560;28;20458;-41
2022/12/23 14:53:03;;;;;;;7.23;3.63;;;;;;;;;;5024135;28;20413;-41
2022/12/23 14:55:29;;;;;;;3.27;3.00;;;;;;;;;;5020895;28;20426;-41
2022/12/23 14:58:04;;;;;;;4.20;3.37;;;;;;;;;;5020875;28;20750;-42
2022/12/23 15:00:31;;;;;;;4.10;3.80;;;;;;;;;;5021789;28;20458;-41
2022/12/23 15:03:00;;;;;;;4.40;4.00;;;;;;;;;;5020841;28;20420;-41